CheckWX is a tool to help pilots better visualize weather data.  It is not intended as a substitute for an official pre-flight weather briefing.

04:37:19 UTC

CYQZ METAR
Quesnel Airport
Quesnel, Canada
Current

37 mins ago

CYQZ 250400Z AUTO 30002KT 9SM CLR 05/M08 A3026 RMK SLP271
Observed
Apr-25 @ 04:00 UTC
Wind
  • 300° at 2 KTS
Visibility
9 SM
Flight Rules
VFR
Cloud Levels
  • Clear skies
Temperature
C / 41°F
Dewpoint
-8°C / 18°F
Humidity
39%
Altimeter
30.26" Hg
Pressure
1024.72 hPa
Previous

2 hours ago

CYQZ 250300Z AUTO 36005KT 9SM FEW110 07/M08 A3024 RMK SLP263
Observed
Apr-25 @ 03:00 UTC
Wind
  • 360° at 5 KTS
Visibility
9 SM
Flight Rules
VFR
Cloud Levels
  • Few at 11,000' AGL
Temperature
C / 45°F
Dewpoint
-8°C / 18°F
Humidity
34%
Altimeter
30.24" Hg
Pressure
1024.02 hPa
Previous

3 hours ago

CYQZ 250200Z AUTO 35007KT 9SM BKN110 10/M10 A3024 RMK SLP263
Observed
Apr-25 @ 02:00 UTC
Wind
  • 350° at 7 KTS
Visibility
9 SM
Flight Rules
VFR
Cloud Levels
  • Broken at 11,000' AGL
Temperature
10°C / 50°F
Dewpoint
-10°C / 14°F
Humidity
24%
Altimeter
30.24" Hg
Pressure
1024.02 hPa